createdAt,value
2024-01-27T00:07:34.234Z,154
2024-01-27T00:24:05.906Z,157
2024-01-27T00:40:36.223Z,154
2024-01-27T00:57:06.954Z,156
2024-01-27T01:13:38.070Z,155
2024-01-27T01:30:09.601Z,158
2024-01-27T02:03:10.991Z,156
2024-01-27T02:19:36.844Z,155
2024-01-27T02:36:06.729Z,156
2024-01-27T02:52:37.104Z,155
2024-01-27T03:09:07.563Z,156
2024-01-27T03:42:08.101Z,156
2024-01-27T04:15:07.428Z,157
2024-01-27T04:31:36.671Z,156
2024-01-27T04:48:07.448Z,156
2024-01-27T05:21:01.971Z,155
2024-01-27T05:37:26.874Z,156
2024-01-27T05:53:57.380Z,156
2024-01-27T06:10:26.337Z,155
2024-01-27T06:26:55.947Z,154
2024-01-27T06:43:24.688Z,154
2024-01-27T06:59:55.212Z,152
2024-01-27T07:32:55.100Z,152
2024-01-27T08:05:55.648Z,151
2024-01-27T08:22:25.553Z,152
2024-01-27T08:38:51.752Z,149
2024-01-27T08:55:18.500Z,149
2024-01-27T09:11:51.685Z,148
2024-01-27T09:28:24.676Z,146
2024-01-27T09:44:56.489Z,148
2024-01-27T10:01:30.010Z,147
2024-01-27T10:18:02.674Z,148
2024-01-27T10:34:34.475Z,151
2024-01-27T10:51:07.802Z,147
2024-01-27T11:07:41.010Z,148
2024-01-27T11:24:08.773Z,148
2024-01-27T11:40:36.157Z,147
2024-01-27T11:57:08.577Z,149
2024-01-27T12:13:40.186Z,146
2024-01-27T13:03:16.958Z,144
2024-01-27T13:19:49.863Z,145
2024-01-27T13:36:21.595Z,143
2024-01-27T13:52:49.529Z,141
2024-01-27T14:09:21.342Z,142
2024-01-27T14:25:53.038Z,143
2024-01-27T14:42:26.156Z,143
2024-01-27T15:15:29.405Z,143
2024-01-27T15:32:00.266Z,142
2024-01-27T15:48:31.791Z,139
2024-01-27T16:05:04.147Z,142
2024-01-27T16:21:36.026Z,142
2024-01-27T16:38:06.637Z,138
2024-01-27T16:54:38.762Z,137
2024-01-27T17:11:09.458Z,138
2024-01-27T17:27:35.552Z,138
2024-01-27T17:44:01.274Z,137
2024-01-27T18:00:32.249Z,135
2024-01-27T18:17:02.818Z,137
2024-01-27T18:33:32.864Z,138
2024-01-27T18:50:03.939Z,138
2024-01-27T19:06:34.851Z,136
2024-01-27T19:23:04.566Z,135
2024-01-27T19:39:35.825Z,136
2024-01-27T19:56:06.864Z,135
2024-01-27T20:12:36.124Z,136
2024-01-27T20:29:05.386Z,136
2024-01-27T20:45:34.995Z,130
2024-01-27T21:02:04.800Z,134
2024-01-27T21:18:30.223Z,133
2024-01-27T21:35:01.045Z,134
2024-01-27T21:51:30.579Z,133
2024-01-27T22:08:01.114Z,132
2024-01-27T22:24:31.195Z,133
2024-01-27T22:41:01.844Z,134
2024-01-27T22:57:30.989Z,132
2024-01-27T23:14:00.054Z,133
2024-01-27T23:30:30.201Z,132
